createdAt,value
2022-11-30T00:01:52.217Z,102397.88
2022-11-30T00:04:20.838Z,102400.44
2022-11-30T00:06:49.416Z,102395.88
2022-11-30T00:09:17.949Z,102400.25
2022-11-30T00:11:46.575Z,102402.81
2022-11-30T00:14:15.245Z,102400.25
2022-11-30T00:16:45.806Z,102404.63
2022-11-30T00:19:14.427Z,102400.16
2022-11-30T00:21:43.062Z,102399.41
2022-11-30T00:24:11.725Z,102406.44
2022-11-30T00:26:40.325Z,102403.00
2022-11-30T00:29:08.920Z,102411.94
2022-11-30T00:31:37.463Z,102405.88
2022-11-30T00:34:08.049Z,102408.53
2022-11-30T00:36:36.649Z,102402.75
2022-11-30T00:39:05.830Z,102399.97
2022-11-30T00:41:34.375Z,102400.75
2022-11-30T00:44:02.964Z,102400.63
2022-11-30T00:46:31.756Z,102396.28
2022-11-30T00:49:00.466Z,102392.75
2022-11-30T00:51:30.952Z,102398.19
2022-11-30T00:53:59.600Z,102392.88
2022-11-30T00:56:28.149Z,102391.25
2022-11-30T00:58:56.760Z,102394.78
2022-11-30T01:01:25.404Z,102396.56
2022-11-30T01:03:54.238Z,102394.84
2022-11-30T01:06:22.798Z,102396.56
2022-11-30T01:08:53.338Z,102391.16
2022-11-30T01:11:25.960Z,102383.19
2022-11-30T01:13:56.558Z,102396.38
2022-11-30T01:16:28.264Z,102392.75
2022-11-30T01:18:57.953Z,102394.34
2022-11-30T01:21:30.096Z,102396.81
2022-11-30T01:24:00.660Z,102402.06
2022-11-30T01:26:29.340Z,102403.78
2022-11-30T01:28:58.180Z,102404.63
2022-11-30T01:31:27.069Z,102395.78
2022-11-30T01:33:57.119Z,102410.69
2022-11-30T01:36:27.746Z,102403.47
2022-11-30T01:38:59.990Z,102402.59
2022-11-30T01:41:31.173Z,102400.81
2022-11-30T01:44:30.839Z,102398.22
2022-11-30T01:47:02.360Z,102401.47
2022-11-30T01:49:35.750Z,102401.47
2022-11-30T01:52:09.011Z,102413.03
2022-11-30T01:54:46.843Z,102414.94
2022-11-30T01:57:20.546Z,102411.34
2022-11-30T01:59:50.880Z,102414.75
2022-11-30T02:02:27.982Z,102419.88
2022-11-30T02:04:56.879Z,102422.53
2022-11-30T02:07:25.742Z,102411.97
2022-11-30T02:09:56.293Z,102414.44
2022-11-30T02:12:34.515Z,102415.13
2022-11-30T02:15:10.730Z,102414.25
2022-11-30T02:17:48.850Z,102410.53
2022-11-30T02:20:57.488Z,102411.59
2022-11-30T02:23:59.140Z,102416.72
2022-11-30T02:27:04.342Z,102399.88
2022-11-30T02:29:39.810Z,102402.03
2022-11-30T02:32:13.698Z,102411.66
2022-11-30T02:34:44.159Z,102414.19
2022-11-30T02:37:15.564Z,102413.38
2022-11-30T02:39:45.164Z,102408.81
2022-11-30T02:42:14.933Z,102420.16
2022-11-30T02:44:49.290Z,102405.19
2022-11-30T02:47:27.085Z,102413.56
2022-11-30T02:50:01.375Z,102407.69
2022-11-30T02:52:32.916Z,102414.16
2022-11-30T02:55:03.647Z,102418.16
2022-11-30T02:57:32.377Z,102416.84
2022-11-30T03:00:08.499Z,102414.59
2022-11-30T03:02:37.147Z,102410.63
2022-11-30T03:05:06.636Z,102418.06
2022-11-30T03:07:35.622Z,102414.06
2022-11-30T03:10:05.868Z,102408.41
2022-11-30T03:12:34.578Z,102418.47
2022-11-30T03:15:05.692Z,102415.34
2022-11-30T03:17:34.466Z,102415.63
2022-11-30T03:20:03.791Z,102418.47
2022-11-30T03:22:32.446Z,102424.72
2022-11-30T03:25:00.998Z,102427.47
2022-11-30T03:27:29.533Z,102426.50
2022-11-30T03:29:58.095Z,102429.94
2022-11-30T03:32:30.362Z,102431.56
2022-11-30T03:34:59.071Z,102443.69
2022-11-30T03:37:27.721Z,102432.13
2022-11-30T03:39:58.378Z,102435.44
2022-11-30T03:42:27.260Z,102431.75
2022-11-30T03:44:55.854Z,102444.09
2022-11-30T03:47:24.446Z,102443.03
2022-11-30T03:49:54.990Z,102449.00
2022-11-30T03:52:23.569Z,102445.38
2022-11-30T03:54:52.183Z,102449.69
2022-11-30T03:57:20.933Z,102454.13
2022-11-30T03:59:49.513Z,102454.06
2022-11-30T04:02:18.084Z,102460.97
2022-11-30T04:04:47.006Z,102452.88
2022-11-30T04:07:17.816Z,102446.53
2022-11-30T04:09:46.447Z,102454.59
2022-11-30T04:12:15.067Z,102455.47
2022-11-30T04:14:43.667Z,102460.69
2022-11-30T04:17:12.291Z,102454.28
2022-11-30T04:19:40.928Z,102457.72
2022-11-30T04:22:09.537Z,102452.31
2022-11-30T04:24:40.091Z,102456.88
2022-11-30T04:27:08.685Z,102455.06
2022-11-30T04:29:37.264Z,102453.28
2022-11-30T04:32:06.017Z,102451.44
2022-11-30T04:34:34.582Z,102454.88
2022-11-30T04:37:03.209Z,102454.69
2022-11-30T04:39:34.927Z,102456.47
2022-11-30T04:42:06.032Z,102448.50
2022-11-30T04:44:34.598Z,102450.31
2022-11-30T04:47:03.156Z,102452.78
2022-11-30T04:49:31.716Z,102453.72
2022-11-30T04:52:00.282Z,102450.19
2022-11-30T04:54:28.928Z,102456.41
2022-11-30T04:56:57.522Z,102456.41
2022-11-30T04:59:28.011Z,102451.06
2022-11-30T05:01:56.755Z,102454.56
2022-11-30T05:04:25.485Z,102453.72
2022-11-30T05:06:54.109Z,102452.03
2022-11-30T05:09:22.735Z,102452.97
2022-11-30T05:11:51.299Z,102458.28
2022-11-30T05:14:19.958Z,102460.19
2022-11-30T05:16:51.603Z,102458.28
2022-11-30T05:19:20.267Z,102461.06
2022-11-30T05:21:48.915Z,102460.94
2022-11-30T05:24:18.095Z,102462.78
2022-11-30T05:26:46.737Z,102466.28
2022-11-30T05:29:15.417Z,102459.13
2022-11-30T05:31:44.063Z,102460.84
2022-11-30T05:34:14.900Z,102472.34
2022-11-30T05:36:43.514Z,102459.13
2022-11-30T05:39:12.255Z,102468.09
2022-11-30T05:41:40.915Z,102463.78
2022-11-30T05:44:10.912Z,102466.47
2022-11-30T05:46:41.076Z,102462.97
2022-11-30T05:49:09.987Z,102471.78
2022-11-30T05:51:42.111Z,102477.09
2022-11-30T05:54:10.742Z,102474.44
2022-11-30T05:56:39.341Z,102471.88
2022-11-30T05:59:08.014Z,102463.97
2022-11-30T06:01:36.677Z,102473.78
2022-11-30T06:04:09.039Z,102474.06
2022-11-30T06:06:37.677Z,102474.16
2022-11-30T06:09:08.298Z,102483.38
2022-11-30T06:11:39.982Z,102485.25
2022-11-30T06:14:08.606Z,102477.50
2022-11-30T06:16:40.626Z,102488.31
2022-11-30T06:19:09.255Z,102487.75
2022-11-30T06:21:37.857Z,102481.00
2022-11-30T06:24:10.131Z,102483.97
2022-11-30T06:26:39.152Z,102486.03
2022-11-30T06:29:07.792Z,102490.69
2022-11-30T06:31:36.452Z,102490.00
2022-11-30T06:34:05.061Z,102490.22
2022-11-30T06:36:36.232Z,102485.06
2022-11-30T06:39:06.151Z,102489.63
2022-11-30T06:41:36.736Z,102489.72
2022-11-30T06:44:10.052Z,102499.47
2022-11-30T06:46:38.683Z,102489.63
2022-11-30T06:49:07.563Z,102494.00
2022-11-30T06:51:36.833Z,102503.56
2022-11-30T06:54:05.903Z,102500.84
2022-11-30T06:56:36.566Z,102505.19
2022-11-30T06:59:05.294Z,102504.03
2022-11-30T07:01:34.040Z,102512.78
2022-11-30T07:04:02.668Z,102512.72
2022-11-30T07:06:31.357Z,102509.19
2022-11-30T07:08:59.925Z,102519.63
2022-11-30T07:11:28.540Z,102523.22
2022-11-30T07:13:59.095Z,102527.72
2022-11-30T07:16:27.805Z,102528.53
2022-11-30T07:18:56.434Z,102525.72
2022-11-30T07:21:25.405Z,102527.41
2022-11-30T07:24:07.106Z,102532.56
2022-11-30T07:26:40.852Z,102540.53
2022-11-30T07:29:13.808Z,102540.53
2022-11-30T07:31:42.521Z,102543.91
2022-11-30T07:34:12.741Z,102555.44
2022-11-30T07:36:41.312Z,102557.97
2022-11-30T07:39:11.151Z,102556.19
2022-11-30T07:41:43.917Z,102548.22
2022-11-30T07:44:14.723Z,102555.25
2022-11-30T07:46:43.681Z,102550.94
2022-11-30T07:49:12.852Z,102556.25
2022-11-30T07:51:41.615Z,102562.44
2022-11-30T07:54:10.284Z,102563.41
2022-11-30T07:56:38.908Z,102565.19
2022-11-30T07:59:07.547Z,102562.44
2022-11-30T08:01:38.304Z,102570.31
2022-11-30T08:04:07.368Z,102571.25
2022-11-30T08:06:36.078Z,102570.50
2022-11-30T08:09:06.609Z,102574.97
2022-11-30T08:11:37.351Z,102577.63
2022-11-30T08:14:06.665Z,102583.59
2022-11-30T08:16:39.486Z,102579.94
2022-11-30T08:19:08.426Z,102588.47
2022-11-30T08:21:37.488Z,102581.91
2022-11-30T08:24:07.089Z,102586.09
2022-11-30T08:26:36.183Z,102589.41
2022-11-30T08:29:04.912Z,102586.59
2022-11-30T08:31:35.669Z,102587.25
2022-11-30T08:34:09.292Z,102584.41
2022-11-30T08:36:38.067Z,102589.53
2022-11-30T08:39:08.630Z,102594.56
2022-11-30T08:41:38.633Z,102592.59
2022-11-30T08:44:07.969Z,102598.56
2022-11-30T08:46:53.452Z,102599.22
2022-11-30T08:49:25.406Z,102608.75
2022-11-30T08:54:47.609Z,102613.94
2022-11-30T08:57:17.734Z,102611.22
2022-11-30T08:59:46.547Z,102605.69
2022-11-30T09:02:19.035Z,102608.09
2022-11-30T09:04:51.315Z,102606.91
2022-11-30T09:07:20.124Z,102603.53
2022-11-30T09:09:49.134Z,102612.94
2022-11-30T09:12:17.791Z,102612.75
2022-11-30T09:14:50.794Z,102615.78
2022-11-30T09:17:22.785Z,102615.69
2022-11-30T09:19:54.090Z,102626.25
2022-11-30T09:22:22.819Z,102620.81
2022-11-30T09:24:51.528Z,102621.28
2022-11-30T09:27:20.283Z,102631.56
2022-11-30T09:29:48.900Z,102623.91
2022-11-30T09:32:17.515Z,102634.38
2022-11-30T09:34:46.461Z,102634.00
2022-11-30T09:37:17.194Z,102624.88
2022-11-30T09:39:45.796Z,102630.34
2022-11-30T09:42:44.866Z,102630.69
2022-11-30T09:45:20.607Z,102622.13
2022-11-30T09:48:09.943Z,102631.72
2022-11-30T09:50:44.455Z,102633.13
2022-11-30T09:53:28.954Z,102631.84
2022-11-30T09:56:00.295Z,102634.00
2022-11-30T09:58:40.167Z,102632.41
2022-11-30T10:01:19.163Z,102638.38
2022-11-30T10:03:48.605Z,102630.84
2022-11-30T10:06:27.723Z,102636.84
2022-11-30T10:09:31.917Z,102634.94
2022-11-30T10:12:07.619Z,102616.78
2022-11-30T10:15:07.035Z,102622.13
2022-11-30T10:17:47.355Z,102625.16
2022-11-30T10:20:39.180Z,102627.81
2022-11-30T10:23:27.288Z,102626.63
2022-11-30T10:26:01.668Z,102621.66
2022-11-30T10:28:47.590Z,102631.16
2022-11-30T10:31:18.023Z,102623.66
2022-11-30T10:33:50.512Z,102632.97
2022-11-30T10:36:45.783Z,102627.22
2022-11-30T10:39:22.164Z,102619.69
2022-11-30T10:41:57.026Z,102622.78
2022-11-30T10:44:30.059Z,102620.53
2022-11-30T10:47:04.580Z,102621.16
2022-11-30T10:49:34.532Z,102614.53
2022-11-30T10:52:08.217Z,102613.69
2022-11-30T10:54:38.419Z,102611.53
2022-11-30T10:57:09.393Z,102612.34
2022-11-30T10:59:45.951Z,102610.81
2022-11-30T11:02:42.354Z,102608.06
2022-11-30T11:05:21.164Z,102607.63
2022-11-30T11:07:57.835Z,102602.56
2022-11-30T11:10:35.861Z,102605.63
2022-11-30T11:13:07.354Z,102604.91
2022-11-30T11:15:36.810Z,102603.78
2022-11-30T11:18:26.087Z,102597.16
2022-11-30T11:21:07.627Z,102605.47
2022-11-30T11:23:39.592Z,102600.94
2022-11-30T11:26:17.183Z,102599.22
2022-11-30T11:28:51.061Z,102612.41
2022-11-30T11:31:35.045Z,102609.00
2022-11-30T11:34:04.103Z,102605.72
2022-11-30T11:36:36.188Z,102609.44
2022-11-30T11:39:25.562Z,102608.47
2022-11-30T11:41:54.564Z,102604.78
2022-11-30T11:44:27.639Z,102608.41
2022-11-30T11:46:59.373Z,102603.75
2022-11-30T11:49:30.416Z,102597.50
2022-11-30T11:52:04.086Z,102602.66
2022-11-30T11:54:38.216Z,102608.38
2022-11-30T11:57:13.208Z,102604.88
2022-11-30T11:59:53.559Z,102605.09
2022-11-30T12:02:36.249Z,102600.72
2022-11-30T12:05:12.255Z,102602.56
2022-11-30T12:07:47.733Z,102605.31
2022-11-30T12:13:22.875Z,102603.00
2022-11-30T12:16:08.310Z,102604.41
2022-11-30T12:18:51.267Z,102607.03
2022-11-30T12:21:33.241Z,102606.31
2022-11-30T12:24:35.410Z,102601.72
2022-11-30T12:27:17.964Z,102605.75
2022-11-30T12:30:00.185Z,102603.44
2022-11-30T12:32:51.165Z,102604.84
2022-11-30T12:35:36.506Z,102607.72
2022-11-30T12:38:20.760Z,102608.41
2022-11-30T12:40:58.153Z,102608.44
2022-11-30T12:43:40.765Z,102603.38
2022-11-30T12:46:21.370Z,102606.63
2022-11-30T12:49:09.978Z,102598.31
2022-11-30T12:51:45.282Z,102611.38
2022-11-30T12:54:22.984Z,102611.47
2022-11-30T12:56:58.351Z,102612.97
2022-11-30T12:59:39.198Z,102610.91
2022-11-30T13:02:37.688Z,102613.91
2022-11-30T13:05:12.364Z,102611.38
2022-11-30T13:07:46.087Z,102613.38
2022-11-30T13:10:26.687Z,102612.00
2022-11-30T13:12:57.579Z,102613.91
2022-11-30T13:15:30.720Z,102620.53
2022-11-30T13:18:01.166Z,102626.06
2022-11-30T13:20:39.935Z,102624.97
2022-11-30T13:23:15.540Z,102626.56
2022-11-30T13:26:08.420Z,102633.94
2022-11-30T13:29:00.962Z,102625.19
2022-11-30T13:31:37.087Z,102632.97
2022-11-30T13:34:05.752Z,102629.31
2022-11-30T13:36:40.098Z,102627.53
2022-11-30T13:39:24.994Z,102628.69
2022-11-30T13:42:37.370Z,102634.22
2022-11-30T13:45:38.098Z,102637.75
2022-11-30T13:48:33.147Z,102637.41
2022-11-30T13:51:02.250Z,102631.25
2022-11-30T13:53:35.276Z,102635.44
2022-11-30T13:56:23.899Z,102638.44
2022-11-30T13:59:35.633Z,102634.44
2022-11-30T14:04:45.477Z,102627.19
2022-11-30T14:07:36.763Z,102638.16
2022-11-30T14:10:26.534Z,102643.06
2022-11-30T14:13:05.385Z,102644.25
2022-11-30T14:15:57.580Z,102649.47
2022-11-30T14:18:46.195Z,102655.97
2022-11-30T14:21:24.534Z,102661.75
2022-11-30T14:24:00.370Z,102658.31
2022-11-30T14:26:37.466Z,102660.34
2022-11-30T14:29:20.039Z,102660.63
2022-11-30T14:31:57.723Z,102664.44
2022-11-30T14:34:31.881Z,102671.00
2022-11-30T14:37:04.672Z,102671.19
2022-11-30T14:39:36.868Z,102671.59
2022-11-30T14:42:23.375Z,102662.94
2022-11-30T14:44:55.225Z,102666.53
2022-11-30T14:47:25.770Z,102664.81
2022-11-30T14:49:56.525Z,102661.03
2022-11-30T14:52:50.184Z,102664.00
2022-11-30T14:55:32.497Z,102670.50
2022-11-30T14:58:16.422Z,102669.75
2022-11-30T15:00:48.541Z,102667.47
2022-11-30T15:03:26.284Z,102681.16
2022-11-30T15:05:58.382Z,102673.53
2022-11-30T15:08:36.400Z,102679.22
2022-11-30T15:11:08.295Z,102680.38
2022-11-30T15:13:40.818Z,102684.50
2022-11-30T15:16:22.038Z,102682.78
2022-11-30T15:18:51.793Z,102687.44
2022-11-30T15:21:23.822Z,102680.75
2022-11-30T15:23:53.882Z,102686.38
2022-11-30T15:26:28.550Z,102692.22
2022-11-30T15:29:01.547Z,102695.16
2022-11-30T15:31:38.278Z,102698.28
2022-11-30T15:34:08.570Z,102695.97
2022-11-30T15:36:38.947Z,102692.91
2022-11-30T15:39:16.291Z,102687.75
2022-11-30T15:41:45.002Z,102693.25
2022-11-30T15:44:26.716Z,102690.25
2022-11-30T15:47:02.564Z,102693.94
2022-11-30T15:49:33.485Z,102701.22
2022-11-30T15:52:08.428Z,102711.31
2022-11-30T15:54:52.063Z,102711.69
2022-11-30T15:57:22.304Z,102705.88
2022-11-30T16:00:10.881Z,102707.81
2022-11-30T16:02:41.550Z,102708.22
2022-11-30T16:05:27.637Z,102709.38
2022-11-30T16:07:59.355Z,102711.31
2022-11-30T16:10:34.214Z,102708.84
2022-11-30T16:13:03.643Z,102710.00
2022-11-30T16:15:35.450Z,102717.13
2022-11-30T16:18:20.826Z,102714.78
2022-11-30T16:20:53.522Z,102726.34
2022-11-30T16:26:03.190Z,102717.72
2022-11-30T16:28:39.907Z,102719.53
2022-11-30T16:31:15.399Z,102708.19
2022-11-30T16:33:44.492Z,102713.59
2022-11-30T16:36:18.190Z,102715.56
2022-11-30T16:38:50.029Z,102729.88
2022-11-30T16:41:22.606Z,102724.22
2022-11-30T16:43:53.422Z,102723.97
2022-11-30T16:46:25.204Z,102725.94
2022-11-30T16:48:54.446Z,102728.69
2022-11-30T16:51:26.664Z,102729.66
2022-11-30T16:53:55.847Z,102732.31
2022-11-30T16:56:26.841Z,102740.44
2022-11-30T16:58:55.699Z,102738.91
2022-11-30T17:01:34.534Z,102746.09
2022-11-30T17:04:14.049Z,102747.94
2022-11-30T17:06:44.010Z,102748.97
2022-11-30T17:09:17.595Z,102758.81
2022-11-30T17:11:49.774Z,102755.44
2022-11-30T17:14:19.283Z,102755.63
2022-11-30T17:16:48.209Z,102766.38
